Avery, TX

3:41 PM CDT on October 31, 2014 (GMT -0500)
De Kalb, Texas | Change Station
CLOSE
Current Station
Personal Weather Station
Location: De Kalb, TX
Elevation: 411 ft
Nearby Weather Stations

Elev 411 ft 33.51 °N, 94.62 °W | Updated 4 seconds ago

Clear
Clear
64.9 °F
Feels Like 64.9 °F
N
3.0
Wind Variable Wind from NNW
Gusts 6.0 mph

Today
High -- | Low -- °F
--% Chance of Precip.
Yesterday
High -- | Low -- °F
Precip. -- in
7:37 AM 6:28 PM
First Quarter, 58% visible
Pressure 30.26 in
Visibility 10.0 miles
Clouds Scattered Clouds 4900 ft
Dew Point 46 °F
Humidity 51%
Rainfall 0.00 in
Snow Depth Not available.
UV 3 out of 12
Pollen 2.70 out of 12
Air Quality Not available.
Flu Activity Not available.
METAR KOSA 312035Z AUTO 33010G18KT 10SM SCT049 18/05 A3026 RMK AO1 T01810052

More Conditions Fewer Conditions

Pressure 30.26 in
Visibility 10.0 miles
Clouds Scattered Clouds 4900 ft
Dew Point 46 °F
Humidity 51%
Rainfall 0.00 in
Snow Depth Not available.
UV 3 out of 12
Pollen 2.70 out of 12
Air Quality Not available.
Flu Activity Not available.
METAR KOSA 312035Z AUTO 33010G18KT 10SM SCT049 18/05 A3026 RMK AO1 T01810052

More Conditions Fewer Conditions

10-Day Weather Forecast

Almanac

Astronomy

Oct. 31, 2014 Rise Set
Actual Time
Civil Twilight
Nautical Twilight
Astronomical Twilight
Moon
Length of Visible Light
Length of Day
Tomorrow will be .
, % of the Moon is Illuminated

Today's Extremes

State Highs State Lows

Community

WunderPhotos

Upload Photos

1,766,734 photos uploaded!

WunderBlogs® & News

Nearby

Air Quality

  Air Quality AQ Index Pollutant
Not available.

Snow Depth

Station Depth Elevation

Earthquake Activity

City Distance Mag. Time & Date
Minimum magnitude displayed is 2.5.

Coastal Water Temperatures

Place Temperature

Nearby Weather Stations